sensor_id;sensor_type;location;lat;lon;timestamp;pressure;altitude;pressure_sealevel;temperature;humidity
12987;BME280;58897;51.960;5.582;2022-09-23T00:01:02;101462.88;;;13.50;67.23
12987;BME280;58897;51.960;5.582;2022-09-23T00:03:29;101467.94;;;13.45;66.90
12987;BME280;58897;51.960;5.582;2022-09-23T00:06:01;101468.63;;;13.55;67.23
12987;BME280;58897;51.960;5.582;2022-09-23T00:08:29;101476.06;;;13.37;66.82
12987;BME280;58897;51.960;5.582;2022-09-23T00:10:55;101475.53;;;13.33;67.82
12987;BME280;58897;51.960;5.582;2022-09-23T00:13:23;101471.97;;;13.33;67.60
12987;BME280;58897;51.960;5.582;2022-09-23T00:15:50;101472.16;;;13.31;67.61
12987;BME280;58897;51.960;5.582;2022-09-23T00:18:17;101471.63;;;13.28;68.69
12987;BME280;58897;51.960;5.582;2022-09-23T00:20:46;101472.16;;;13.39;67.80
12987;BME280;58897;51.960;5.582;2022-09-23T00:23:12;101472.50;;;13.36;68.25
12987;BME280;58897;51.960;5.582;2022-09-23T00:25:39;101460.25;;;13.32;68.74
12987;BME280;58897;51.960;5.582;2022-09-23T00:28:05;101457.69;;;13.23;69.17
12987;BME280;58897;51.960;5.582;2022-09-23T00:30:31;101461.78;;;13.19;69.73
12987;BME280;58897;51.960;5.582;2022-09-23T00:32:58;101447.38;;;13.26;68.09
12987;BME280;58897;51.960;5.582;2022-09-23T00:35:25;101453.47;;;13.20;67.91
12987;BME280;58897;51.960;5.582;2022-09-23T00:37:51;101449.41;;;13.16;68.23
12987;BME280;58897;51.960;5.582;2022-09-23T00:40:18;101443.97;;;13.16;68.92
12987;BME280;58897;51.960;5.582;2022-09-23T00:42:48;101452.59;;;13.20;68.27
12987;BME280;58897;51.960;5.582;2022-09-23T00:45:17;101447.16;;;13.12;68.35
12987;BME280;58897;51.960;5.582;2022-09-23T00:47:55;101449.03;;;13.11;69.14
12987;BME280;58897;51.960;5.582;2022-09-23T00:50:31;101452.06;;;13.08;68.44
12987;BME280;58897;51.960;5.582;2022-09-23T00:53:12;101447.88;;;13.22;68.45
12987;BME280;58897;51.960;5.582;2022-09-23T00:55:50;101455.28;;;13.12;68.45
12987;BME280;58897;51.960;5.582;2022-09-23T00:58:21;101441.22;;;13.08;68.50
12987;BME280;58897;51.960;5.582;2022-09-23T01:00:48;101436.09;;;13.05;69.39
12987;BME280;58897;51.960;5.582;2022-09-23T01:03:15;101434.72;;;13.01;69.40
12987;BME280;58897;51.960;5.582;2022-09-23T01:05:41;101434.25;;;13.06;69.76
12987;BME280;58897;51.960;5.582;2022-09-23T01:08:09;101426.41;;;12.94;70.05
12987;BME280;58897;51.960;5.582;2022-09-23T01:27:56;101428.88;;;12.72;71.77
12987;BME280;58897;51.960;5.582;2022-09-23T01:33:23;101426.13;;;12.64;72.91
12987;BME280;58897;51.960;5.582;2022-09-23T01:36:09;101423.22;;;12.65;72.56
12987;BME280;58897;51.960;5.582;2022-09-23T01:41:13;101418.97;;;12.63;72.54
12987;BME280;58897;51.960;5.582;2022-09-23T01:43:53;101410.13;;;12.53;72.99
12987;BME280;58897;51.960;5.582;2022-09-23T01:46:26;101416.44;;;12.61;73.32
12987;BME280;58897;51.960;5.582;2022-09-23T01:49:08;101414.50;;;12.46;73.83
12987;BME280;58897;51.960;5.582;2022-09-23T01:51:41;101410.63;;;12.48;73.65
12987;BME280;58897;51.960;5.582;2022-09-23T01:54:42;101406.88;;;12.49;74.52
12987;BME280;58897;51.960;5.582;2022-09-23T01:57:13;101407.34;;;12.36;75.47
12987;BME280;58897;51.960;5.582;2022-09-23T01:59:48;101410.84;;;12.29;75.17
12987;BME280;58897;51.960;5.582;2022-09-23T02:02:23;101407.81;;;12.32;75.56
12987;BME280;58897;51.960;5.582;2022-09-23T02:04:57;101414.00;;;12.50;74.76
12987;BME280;58897;51.960;5.582;2022-09-23T02:07:53;101412.25;;;12.33;74.92
12987;BME280;58897;51.960;5.582;2022-09-23T02:10:35;101414.72;;;12.26;75.75
12987;BME280;58897;51.960;5.582;2022-09-23T02:13:13;101410.72;;;12.30;75.53
12987;BME280;58897;51.960;5.582;2022-09-23T02:15:49;101409.13;;;12.20;75.64
12987;BME280;58897;51.960;5.582;2022-09-23T02:18:21;101410.00;;;12.28;75.61
12987;BME280;58897;51.960;5.582;2022-09-23T02:20:51;101408.69;;;12.32;75.33
12987;BME280;58897;51.960;5.582;2022-09-23T02:23:22;101400.19;;;12.27;76.09
12987;BME280;58897;51.960;5.582;2022-09-23T02:25:57;101390.66;;;12.23;76.45
12987;BME280;58897;51.960;5.582;2022-09-23T02:28:49;101382.81;;;12.12;76.93
12987;BME280;58897;51.960;5.582;2022-09-23T02:31:29;101386.19;;;12.06;77.50
12987;BME280;58897;51.960;5.582;2022-09-23T02:34:13;101382.06;;;12.02;77.06
12987;BME280;58897;51.960;5.582;2022-09-23T02:37:04;101380.22;;;12.03;77.30
12987;BME280;58897;51.960;5.582;2022-09-23T02:39:42;101374.31;;;12.07;77.23
12987;BME280;58897;51.960;5.582;2022-09-23T02:42:19;101375.47;;;12.05;77.36
12987;BME280;58897;51.960;5.582;2022-09-23T02:44:47;101372.69;;;12.14;76.94
12987;BME280;58897;51.960;5.582;2022-09-23T02:47:16;101366.72;;;12.11;76.96
12987;BME280;58897;51.960;5.582;2022-09-23T02:49:44;101365.69;;;12.04;77.10
12987;BME280;58897;51.960;5.582;2022-09-23T02:52:10;101362.28;;;12.02;77.53
12987;BME280;58897;51.960;5.582;2022-09-23T02:54:39;101361.56;;;12.00;77.91
12987;BME280;58897;51.960;5.582;2022-09-23T02:57:06;101366.84;;;12.01;77.34
12987;BME280;58897;51.960;5.582;2022-09-23T02:59:34;101352.72;;;11.90;77.98
12987;BME280;58897;51.960;5.582;2022-09-23T03:04:55;101356.22;;;11.82;77.83
12987;BME280;58897;51.960;5.582;2022-09-23T03:13:45;101344.97;;;11.69;79.23
12987;BME280;58897;51.960;5.582;2022-09-23T03:16:36;101341.66;;;11.57;79.80
12987;BME280;58897;51.960;5.582;2022-09-23T03:20:05;101349.38;;;11.70;78.81
12987;BME280;58897;51.960;5.582;2022-09-23T03:22:18;101345.66;;;11.53;80.05
12987;BME280;58897;51.960;5.582;2022-09-23T03:24:49;101344.28;;;11.49;80.26
12987;BME280;58897;51.960;5.582;2022-09-23T03:27:23;101335.84;;;11.52;80.50
12987;BME280;58897;51.960;5.582;2022-09-23T03:29:52;101340.91;;;11.30;80.99
12987;BME280;58897;51.960;5.582;2022-09-23T03:32:22;101335.09;;;11.42;81.38
12987;BME280;58897;51.960;5.582;2022-09-23T03:34:51;101335.31;;;11.49;80.30
12987;BME280;58897;51.960;5.582;2022-09-23T03:37:26;101334.19;;;11.34;81.47
12987;BME280;58897;51.960;5.582;2022-09-23T03:40:09;101337.88;;;11.33;82.06
12987;BME280;58897;51.960;5.582;2022-09-23T03:42:37;101341.59;;;11.49;80.96
12987;BME280;58897;51.960;5.582;2022-09-23T03:45:09;101338.63;;;11.43;81.90
12987;BME280;58897;51.960;5.582;2022-09-23T03:47:38;101335.94;;;11.43;81.65
12987;BME280;58897;51.960;5.582;2022-09-23T03:50:05;101335.00;;;11.52;81.63
12987;BME280;58897;51.960;5.582;2022-09-23T03:52:31;101335.91;;;11.60;81.32
12987;BME280;58897;51.960;5.582;2022-09-23T03:54:58;101336.84;;;11.69;81.26
12987;BME280;58897;51.960;5.582;2022-09-23T03:57:24;101328.00;;;11.67;80.78
12987;BME280;58897;51.960;5.582;2022-09-23T03:59:51;101325.69;;;11.29;82.65
12987;BME280;58897;51.960;5.582;2022-09-23T04:02:18;101328.47;;;11.19;83.82
12987;BME280;58897;51.960;5.582;2022-09-23T04:04:45;101319.13;;;11.31;82.70
12987;BME280;58897;51.960;5.582;2022-09-23T04:07:12;101325.53;;;11.30;83.15
12987;BME280;58897;51.960;5.582;2022-09-23T04:09:39;101318.03;;;11.24;83.41
12987;BME280;58897;51.960;5.582;2022-09-23T04:12:06;101319.19;;;11.22;83.91
12987;BME280;58897;51.960;5.582;2022-09-23T04:14:32;101320.28;;;11.29;83.79
12987;BME280;58897;51.960;5.582;2022-09-23T04:16:59;101316.25;;;11.33;83.36
12987;BME280;58897;51.960;5.582;2022-09-23T04:19:25;101322.59;;;11.41;82.64
12987;BME280;58897;51.960;5.582;2022-09-23T04:21:52;101312.00;;;11.30;83.84
12987;BME280;58897;51.960;5.582;2022-09-23T04:24:18;101313.38;;;11.34;82.99
12987;BME280;58897;51.960;5.582;2022-09-23T04:26:44;101310.75;;;11.25;83.89
12987;BME280;58897;51.960;5.582;2022-09-23T04:29:11;101324.84;;;11.28;83.54
12987;BME280;58897;51.960;5.582;2022-09-23T04:31:37;101327.22;;;11.31;84.17
12987;BME280;58897;51.960;5.582;2022-09-23T04:34:04;101327.06;;;11.33;83.79
12987;BME280;58897;51.960;5.582;2022-09-23T04:36:30;101315.94;;;11.00;86.14
12987;BME280;58897;51.960;5.582;2022-09-23T04:38:57;101324.53;;;10.96;86.61
12987;BME280;58897;51.960;5.582;2022-09-23T04:41:23;101322.84;;;10.95;86.64
12987;BME280;58897;51.960;5.582;2022-09-23T04:43:50;101313.78;;;11.22;85.14
12987;BME280;58897;51.960;5.582;2022-09-23T04:46:16;101314.44;;;11.15;86.14
12987;BME280;58897;51.960;5.582;2022-09-23T04:48:43;101319.44;;;11.10;85.77
12987;BME280;58897;51.960;5.582;2022-09-23T04:53:39;101314.31;;;11.25;85.14
12987;BME280;58897;51.960;5.582;2022-09-23T04:56:09;101314.34;;;11.07;85.85
12987;BME280;58897;51.960;5.582;2022-09-23T04:58:37;101308.38;;;11.04;85.81
12987;BME280;58897;51.960;5.582;2022-09-23T05:01:15;101311.31;;;10.93;86.22
12987;BME280;58897;51.960;5.582;2022-09-23T05:03:43;101310.47;;;11.10;86.20
12987;BME280;58897;51.960;5.582;2022-09-23T05:06:11;101311.31;;;10.93;87.11
12987;BME280;58897;51.960;5.582;2022-09-23T05:08:47;101314.03;;;10.93;86.70
12987;BME280;58897;51.960;5.582;2022-09-23T05:11:14;101305.22;;;10.91;86.97
12987;BME280;58897;51.960;5.582;2022-09-23T05:13:41;101310.53;;;11.00;86.33
12987;BME280;58897;51.960;5.582;2022-09-23T05:16:09;101306.63;;;10.95;86.57
12987;BME280;58897;51.960;5.582;2022-09-23T05:18:39;101313.00;;;11.11;86.07
12987;BME280;58897;51.960;5.582;2022-09-23T05:21:13;101318.22;;;11.05;86.99
12987;BME280;58897;51.960;5.582;2022-09-23T05:23:40;101308.19;;;10.97;87.19
12987;BME280;58897;51.960;5.582;2022-09-23T05:26:09;101313.16;;;10.92;87.40
12987;BME280;58897;51.960;5.582;2022-09-23T05:28:37;101305.69;;;10.86;87.01
12987;BME280;58897;51.960;5.582;2022-09-23T05:31:14;101306.22;;;11.07;86.84
12987;BME280;58897;51.960;5.582;2022-09-23T05:33:47;101309.34;;;10.95;87.12
12987;BME280;58897;51.960;5.582;2022-09-23T05:36:14;101307.75;;;10.92;87.02
12987;BME280;58897;51.960;5.582;2022-09-23T05:38:43;101311.22;;;10.85;87.30
12987;BME280;58897;51.960;5.582;2022-09-23T05:41:11;101319.88;;;10.71;88.85
12987;BME280;58897;51.960;5.582;2022-09-23T05:43:39;101315.47;;;10.87;87.40
12987;BME280;58897;51.960;5.582;2022-09-23T05:46:16;101317.97;;;10.81;88.03
12987;BME280;58897;51.960;5.582;2022-09-23T05:48:43;101318.56;;;10.92;87.61
12987;BME280;58897;51.960;5.582;2022-09-23T05:51:30;101311.22;;;10.85;87.25
12987;BME280;58897;51.960;5.582;2022-09-23T05:53:58;101312.47;;;10.90;87.29
12987;BME280;58897;51.960;5.582;2022-09-23T05:56:26;101317.66;;;11.01;86.94
12987;BME280;58897;51.960;5.582;2022-09-23T05:58:55;101315.19;;;10.73;87.81
12987;BME280;58897;51.960;5.582;2022-09-23T06:01:26;101317.28;;;10.96;86.87
12987;BME280;58897;51.960;5.582;2022-09-23T06:03:54;101319.34;;;10.85;87.89
12987;BME280;58897;51.960;5.582;2022-09-23T06:06:36;101313.16;;;10.92;87.71
12987;BME280;58897;51.960;5.582;2022-09-23T06:09:04;101318.66;;;10.83;88.26
12987;BME280;58897;51.960;5.582;2022-09-23T06:11:33;101314.56;;;10.96;87.12
12987;BME280;58897;51.960;5.582;2022-09-23T06:14:00;101314.31;;;10.90;87.19
12987;BME280;58897;51.960;5.582;2022-09-23T06:16:30;101323.16;;;10.92;87.16
12987;BME280;58897;51.960;5.582;2022-09-23T06:18:57;101307.72;;;10.84;87.51
12987;BME280;58897;51.960;5.582;2022-09-23T06:21:32;101312.63;;;11.06;86.53
12987;BME280;58897;51.960;5.582;2022-09-23T06:23:59;101317.88;;;10.90;87.58
12987;BME280;58897;51.960;5.582;2022-09-23T06:26:26;101308.38;;;11.04;86.74
12987;BME280;58897;51.960;5.582;2022-09-23T06:28:53;101309.63;;;11.09;86.85
12987;BME280;58897;51.960;5.582;2022-09-23T06:31:19;101308.22;;;11.05;87.21
12987;BME280;58897;51.960;5.582;2022-09-23T06:33:48;101316.41;;;11.13;87.30
12987;BME280;58897;51.960;5.582;2022-09-23T06:36:15;101312.72;;;11.14;86.98
12987;BME280;58897;51.960;5.582;2022-09-23T06:39:02;101311.78;;;11.06;87.52
12987;BME280;58897;51.960;5.582;2022-09-23T06:41:28;101309.09;;;11.24;86.73
12987;BME280;58897;51.960;5.582;2022-09-23T06:43:55;101306.53;;;11.04;87.72
12987;BME280;58897;51.960;5.582;2022-09-23T06:46:21;101302.75;;;11.15;87.13
12987;BME280;58897;51.960;5.582;2022-09-23T06:48:48;101308.53;;;11.20;87.03
12987;BME280;58897;51.960;5.582;2022-09-23T06:51:16;101312.41;;;11.18;88.01
12987;BME280;58897;51.960;5.582;2022-09-23T06:53:47;101312.94;;;11.03;88.02
12987;BME280;58897;51.960;5.582;2022-09-23T06:56:15;101313.72;;;10.96;87.93
12987;BME280;58897;51.960;5.582;2022-09-23T06:58:42;101308.06;;;11.25;87.71
12987;BME280;58897;51.960;5.582;2022-09-23T07:01:11;101313.56;;;11.15;87.14
12987;BME280;58897;51.960;5.582;2022-09-23T07:03:38;101314.53;;;11.32;86.66
12987;BME280;58897;51.960;5.582;2022-09-23T07:06:06;101310.88;;;11.15;86.98
12987;BME280;58897;51.960;5.582;2022-09-23T07:08:33;101306.91;;;11.27;86.41
12987;BME280;58897;51.960;5.582;2022-09-23T07:11:03;101306.22;;;11.25;86.54
12987;BME280;58897;51.960;5.582;2022-09-23T07:13:30;101308.56;;;11.46;85.88
12987;BME280;58897;51.960;5.582;2022-09-23T07:15:59;101311.28;;;11.46;85.18
12987;BME280;58897;51.960;5.582;2022-09-23T07:18:32;101313.00;;;11.47;85.66
12987;BME280;58897;51.960;5.582;2022-09-23T07:21:11;101307.47;;;11.56;85.44
12987;BME280;58897;51.960;5.582;2022-09-23T07:23:42;101307.72;;;11.45;85.92
12987;BME280;58897;51.960;5.582;2022-09-23T07:26:09;101312.56;;;11.59;85.24
12987;BME280;58897;51.960;5.582;2022-09-23T07:28:35;101304.81;;;11.64;84.99
12987;BME280;58897;51.960;5.582;2022-09-23T07:31:04;101308.63;;;11.71;84.73
12987;BME280;58897;51.960;5.582;2022-09-23T07:33:34;101306.75;;;11.98;83.27
12987;BME280;58897;51.960;5.582;2022-09-23T07:36:09;101306.28;;;11.76;84.96
12987;BME280;58897;51.960;5.582;2022-09-23T07:38:36;101300.44;;;12.23;82.39
12987;BME280;58897;51.960;5.582;2022-09-23T07:41:11;101305.06;;;12.05;82.00
12987;BME280;58897;51.960;5.582;2022-09-23T07:43:39;101301.56;;;12.04;82.26
12987;BME280;58897;51.960;5.582;2022-09-23T07:46:09;101303.63;;;12.18;82.36
12987;BME280;58897;51.960;5.582;2022-09-23T07:48:37;101315.03;;;12.30;81.27
12987;BME280;58897;51.960;5.582;2022-09-23T07:51:19;101313.66;;;12.26;81.15
12987;BME280;58897;51.960;5.582;2022-09-23T07:53:47;101312.91;;;12.50;81.51
12987;BME280;58897;51.960;5.582;2022-09-23T07:56:14;101318.78;;;12.37;81.70
12987;BME280;58897;51.960;5.582;2022-09-23T07:58:42;101316.50;;;12.58;81.28
12987;BME280;58897;51.960;5.582;2022-09-23T08:01:09;101322.19;;;12.47;82.32
12987;BME280;58897;51.960;5.582;2022-09-23T08:03:38;101328.31;;;12.49;82.58
12987;BME280;58897;51.960;5.582;2022-09-23T08:06:06;101320.66;;;12.45;83.21
12987;BME280;58897;51.960;5.582;2022-09-23T08:08:33;101306.31;;;12.60;83.34
12987;BME280;58897;51.960;5.582;2022-09-23T08:11:02;101314.47;;;12.60;82.32
12987;BME280;58897;51.960;5.582;2022-09-23T08:13:29;101313.59;;;12.60;82.83
12987;BME280;58897;51.960;5.582;2022-09-23T08:15:56;101306.97;;;12.54;83.42
12987;BME280;58897;51.960;5.582;2022-09-23T08:18:23;101308.34;;;12.50;83.51
12987;BME280;58897;51.960;5.582;2022-09-23T08:20:50;101312.00;;;12.33;84.00
12987;BME280;58897;51.960;5.582;2022-09-23T08:23:17;101306.69;;;12.65;83.14
12987;BME280;58897;51.960;5.582;2022-09-23T08:25:46;101307.84;;;12.55;82.77
12987;BME280;58897;51.960;5.582;2022-09-23T08:28:14;101306.53;;;12.67;82.69
12987;BME280;58897;51.960;5.582;2022-09-23T08:30:47;101310.97;;;12.84;82.58
12987;BME280;58897;51.960;5.582;2022-09-23T08:33:14;101311.50;;;12.95;81.58
12987;BME280;58897;51.960;5.582;2022-09-23T08:35:48;101306.28;;;13.10;82.21
12987;BME280;58897;51.960;5.582;2022-09-23T08:38:14;101303.56;;;13.10;82.09
12987;BME280;58897;51.960;5.582;2022-09-23T08:40:43;101305.06;;;13.05;81.76
12987;BME280;58897;51.960;5.582;2022-09-23T08:43:30;101305.38;;;13.01;81.55
12987;BME280;58897;51.960;5.582;2022-09-23T08:46:03;101309.53;;;13.22;81.02
12987;BME280;58897;51.960;5.582;2022-09-23T08:48:41;101301.03;;;13.33;80.25
12987;BME280;58897;51.960;5.582;2022-09-23T08:51:18;101307.44;;;13.80;78.68
12987;BME280;58897;51.960;5.582;2022-09-23T08:53:48;101318.59;;;14.01;77.75
12987;BME280;58897;51.960;5.582;2022-09-23T08:56:18;101316.81;;;14.24;77.41
12987;BME280;58897;51.960;5.582;2022-09-23T09:06:41;101312.19;;;14.72;75.12
12987;BME280;58897;51.960;5.582;2022-09-23T09:09:24;101306.41;;;14.75;75.99
12987;BME280;58897;51.960;5.582;2022-09-23T09:11:57;101304.63;;;15.35;73.54
12987;BME280;58897;51.960;5.582;2022-09-23T09:14:40;101300.31;;;15.64;71.16
12987;BME280;58897;51.960;5.582;2022-09-23T09:17:13;101300.03;;;15.88;71.05
12987;BME280;58897;51.960;5.582;2022-09-23T09:22:19;101286.78;;;15.70;69.88
12987;BME280;58897;51.960;5.582;2022-09-23T09:24:48;101291.56;;;15.54;70.12
12987;BME280;58897;51.960;5.582;2022-09-23T09:27:15;101286.31;;;15.44;70.90
12987;BME280;58897;51.960;5.582;2022-09-23T09:29:44;101294.09;;;15.55;71.58
12987;BME280;58897;51.960;5.582;2022-09-23T09:32:38;101287.38;;;16.10;70.36
12987;BME280;58897;51.960;5.582;2022-09-23T09:38:00;101279.41;;;16.73;67.60
12987;BME280;58897;51.960;5.582;2022-09-23T09:40:27;101275.88;;;16.79;67.84
12987;BME280;58897;51.960;5.582;2022-09-23T09:42:53;101276.03;;;16.71;66.35
12987;BME280;58897;51.960;5.582;2022-09-23T09:45:27;101280.72;;;17.19;64.51
12987;BME280;58897;51.960;5.582;2022-09-23T09:48:09;101281.50;;;17.13;64.23
12987;BME280;58897;51.960;5.582;2022-09-23T09:50:51;101274.53;;;17.11;65.04
12987;BME280;58897;51.960;5.582;2022-09-23T09:53:39;101276.47;;;17.87;61.91
12987;BME280;58897;51.960;5.582;2022-09-23T09:56:07;101266.78;;;18.19;61.51
12987;BME280;58897;51.960;5.582;2022-09-23T10:01:02;101266.13;;;18.58;59.47
12987;BME280;58897;51.960;5.582;2022-09-23T10:03:38;101259.72;;;18.91;58.99
12987;BME280;58897;51.960;5.582;2022-09-23T10:06:19;101257.56;;;18.74;60.08
12987;BME280;58897;51.960;5.582;2022-09-23T10:09:04;101257.06;;;18.51;59.57
12987;BME280;58897;51.960;5.582;2022-09-23T10:11:34;101258.22;;;18.89;58.97
12987;BME280;58897;51.960;5.582;2022-09-23T10:14:12;101261.91;;;19.55;57.91
12987;BME280;58897;51.960;5.582;2022-09-23T10:16:39;101252.41;;;19.38;57.84
12987;BME280;58897;51.960;5.582;2022-09-23T10:19:22;101258.44;;;18.33;60.21
12987;BME280;58897;51.960;5.582;2022-09-23T10:21:54;101254.56;;;18.62;60.18
12987;BME280;58897;51.960;5.582;2022-09-23T10:24:28;101246.59;;;18.67;60.46
12987;BME280;58897;51.960;5.582;2022-09-23T10:26:59;101248.00;;;18.50;60.63
12987;BME280;58897;51.960;5.582;2022-09-23T10:29:36;101243.59;;;18.15;62.02
12987;BME280;58897;51.960;5.582;2022-09-23T10:32:24;101251.78;;;17.74;63.02
12987;BME280;58897;51.960;5.582;2022-09-23T10:35:15;101253.25;;;17.70;64.70
12987;BME280;58897;51.960;5.582;2022-09-23T10:37:55;101256.34;;;17.95;63.46
12987;BME280;58897;51.960;5.582;2022-09-23T10:46:17;101255.47;;;17.94;63.77
12987;BME280;58897;51.960;5.582;2022-09-23T10:49:19;101252.44;;;17.76;64.91
12987;BME280;58897;51.960;5.582;2022-09-23T10:52:11;101242.97;;;17.72;63.48
12987;BME280;58897;51.960;5.582;2022-09-23T11:00:21;101248.19;;;17.18;65.17
12987;BME280;58897;51.960;5.582;2022-09-23T11:14:11;101249.22;;;17.45;67.97
12987;BME280;58897;51.960;5.582;2022-09-23T11:17:03;101245.56;;;17.31;64.29
12987;BME280;58897;51.960;5.582;2022-09-23T11:20:16;101245.03;;;17.21;64.49
12987;BME280;58897;51.960;5.582;2022-09-23T11:30:58;101236.84;;;17.21;67.63
12987;BME280;58897;51.960;5.582;2022-09-23T11:33:50;101234.66;;;17.31;65.28
12987;BME280;58897;51.960;5.582;2022-09-23T11:36:29;101231.00;;;17.24;65.39
12987;BME280;58897;51.960;5.582;2022-09-23T11:38:59;101231.56;;;17.41;65.32
12987;BME280;58897;51.960;5.582;2022-09-23T11:41:32;101226.25;;;17.33;64.39
12987;BME280;58897;51.960;5.582;2022-09-23T11:44:13;101226.34;;;17.73;62.30
12987;BME280;58897;51.960;5.582;2022-09-23T11:46:44;101225.78;;;17.78;61.28
12987;BME280;58897;51.960;5.582;2022-09-23T11:49:27;101223.66;;;18.14;61.01
12987;BME280;58897;51.960;5.582;2022-09-23T11:52:11;101222.75;;;18.07;61.88
12987;BME280;58897;51.960;5.582;2022-09-23T11:54:45;101210.63;;;18.23;61.57
12987;BME280;58897;51.960;5.582;2022-09-23T11:57:47;101213.06;;;18.05;61.08
12987;BME280;58897;51.960;5.582;2022-09-23T12:00:21;101208.91;;;18.09;61.39
12987;BME280;58897;51.960;5.582;2022-09-23T12:03:10;101213.13;;;18.11;62.03
12987;BME280;58897;51.960;5.582;2022-09-23T12:05:44;101204.75;;;18.19;61.01
12987;BME280;58897;51.960;5.582;2022-09-23T12:08:35;101200.78;;;18.28;60.75
12987;BME280;58897;51.960;5.582;2022-09-23T12:11:27;101197.22;;;18.41;61.36
12987;BME280;58897;51.960;5.582;2022-09-23T12:19:45;101199.03;;;18.14;60.04
12987;BME280;58897;51.960;5.582;2022-09-23T12:22:34;101195.81;;;18.04;62.52
12987;BME280;58897;51.960;5.582;2022-09-23T12:27:53;101200.53;;;18.17;60.58
12987;BME280;58897;51.960;5.582;2022-09-23T12:30:25;101199.50;;;18.31;59.48
12987;BME280;58897;51.960;5.582;2022-09-23T12:33:09;101184.81;;;18.32;59.50
12987;BME280;58897;51.960;5.582;2022-09-23T12:35:42;101181.63;;;18.22;60.38
12987;BME280;58897;51.960;5.582;2022-09-23T12:38:12;101180.47;;;18.03;60.22
12987;BME280;58897;51.960;5.582;2022-09-23T12:40:39;101184.31;;;18.15;59.99
12987;BME280;58897;51.960;5.582;2022-09-23T12:43:17;101178.03;;;18.21;59.08
12987;BME280;58897;51.960;5.582;2022-09-23T12:45:44;101166.69;;;18.24;58.65
12987;BME280;58897;51.960;5.582;2022-09-23T12:58:59;101172.06;;;17.98;60.41
12987;BME280;58897;51.960;5.582;2022-09-23T13:01:27;101170.06;;;17.79;59.82
12987;BME280;58897;51.960;5.582;2022-09-23T13:04:00;101171.88;;;17.65;60.39
12987;BME280;58897;51.960;5.582;2022-09-23T13:07:00;101164.25;;;17.95;61.08
12987;BME280;58897;51.960;5.582;2022-09-23T13:09:32;101169.44;;;17.83;61.21
12987;BME280;58897;51.960;5.582;2022-09-23T13:12:06;101167.53;;;17.77;60.17
12987;BME280;58897;51.960;5.582;2022-09-23T13:14:34;101159.81;;;17.94;60.46
12987;BME280;58897;51.960;5.582;2022-09-23T13:17:03;101160.59;;;18.22;59.59
12987;BME280;58897;51.960;5.582;2022-09-23T13:22:07;101155.47;;;18.06;61.05
12987;BME280;58897;51.960;5.582;2022-09-23T13:24:42;101161.59;;;18.15;58.67
12987;BME280;58897;51.960;5.582;2022-09-23T13:27:31;101155.47;;;18.06;58.57
12987;BME280;58897;51.960;5.582;2022-09-23T13:32:42;101158.63;;;18.03;60.47
12987;BME280;58897;51.960;5.582;2022-09-23T13:35:29;101156.50;;;17.99;60.34
12987;BME280;58897;51.960;5.582;2022-09-23T13:37:57;101150.41;;;18.03;61.78
12987;BME280;58897;51.960;5.582;2022-09-23T13:40:26;101148.66;;;17.89;60.51
12987;BME280;58897;51.960;5.582;2022-09-23T13:43:03;101148.38;;;17.71;61.80
12987;BME280;58897;51.960;5.582;2022-09-23T13:45:30;101145.50;;;17.85;59.41
12987;BME280;58897;51.960;5.582;2022-09-23T13:48:04;101144.44;;;17.86;59.54
12987;BME280;58897;51.960;5.582;2022-09-23T13:50:34;101146.38;;;17.99;59.21
12987;BME280;58897;51.960;5.582;2022-09-23T13:53:07;101138.41;;;18.04;58.92
12987;BME280;58897;51.960;5.582;2022-09-23T13:55:37;101141.38;;;18.03;58.42
12987;BME280;58897;51.960;5.582;2022-09-23T13:58:18;101139.13;;;18.19;59.66
12987;BME280;58897;51.960;5.582;2022-09-23T14:00:46;101134.06;;;18.16;58.96
12987;BME280;58897;51.960;5.582;2022-09-23T14:03:31;101136.06;;;18.48;59.55
12987;BME280;58897;51.960;5.582;2022-09-23T14:06:10;101127.03;;;18.48;59.77
12987;BME280;58897;51.960;5.582;2022-09-23T14:08:40;101134.72;;;18.25;59.16
12987;BME280;58897;51.960;5.582;2022-09-23T14:11:14;101130.41;;;17.96;59.24
12987;BME280;58897;51.960;5.582;2022-09-23T14:13:42;101126.25;;;18.07;60.75
12987;BME280;58897;51.960;5.582;2022-09-23T14:16:11;101120.94;;;17.92;60.02
12987;BME280;58897;51.960;5.582;2022-09-23T14:18:43;101122.34;;;17.75;61.51
12987;BME280;58897;51.960;5.582;2022-09-23T14:21:47;101123.59;;;17.79;61.02
12987;BME280;58897;51.960;5.582;2022-09-23T14:24:32;101114.78;;;17.77;61.51
12987;BME280;58897;51.960;5.582;2022-09-23T14:27:13;101115.63;;;17.77;61.80
12987;BME280;58897;51.960;5.582;2022-09-23T14:29:45;101115.72;;;17.56;62.79
12987;BME280;58897;51.960;5.582;2022-09-23T14:32:15;101113.69;;;17.71;62.64
12987;BME280;58897;51.960;5.582;2022-09-23T14:34:52;101111.97;;;17.64;62.15
12987;BME280;58897;51.960;5.582;2022-09-23T14:43:05;101087.41;;;17.70;63.71
12987;BME280;58897;51.960;5.582;2022-09-23T14:45:38;101106.47;;;17.57;64.20
12987;BME280;58897;51.960;5.582;2022-09-23T14:48:12;101101.81;;;17.51;62.61
12987;BME280;58897;51.960;5.582;2022-09-23T14:50:47;101108.00;;;17.66;62.70
12987;BME280;58897;51.960;5.582;2022-09-23T14:55:55;101099.97;;;17.58;62.61
12987;BME280;58897;51.960;5.582;2022-09-23T14:58:53;101106.56;;;17.36;64.14
12987;BME280;58897;51.960;5.582;2022-09-23T15:01:40;101104.78;;;17.28;64.49
12987;BME280;58897;51.960;5.582;2022-09-23T15:06:41;101101.63;;;17.53;64.61
12987;BME280;58897;51.960;5.582;2022-09-23T15:09:16;101100.19;;;17.57;65.63
12987;BME280;58897;51.960;5.582;2022-09-23T15:11:45;101091.59;;;17.32;65.63
12987;BME280;58897;51.960;5.582;2022-09-23T15:14:12;101094.53;;;17.31;66.54
12987;BME280;58897;51.960;5.582;2022-09-23T15:16:59;101090.25;;;17.49;66.05